Time;durP1;ratioP1;P1;durP2;ratioP2;P2;SDS_P1;SDS_P2;PMS_P1;PMS_P2;Temp;Humidity;BMP_temperature;BMP_pressure;BME280_temperature;BME280_humidity;BME280_pressure;Samples;Min_cycle;Max_cycle;Signal;HPM_P1;HPM_P2
2024/01/06 00:02:18;;;;;;;;;;;282.30;2278.40;;;;;;4977523;28;19906;-79
2024/01/06 00:04:43;;;;;;;;;;;282.20;2278.40;;;;;;4960264;28;20044;-79
2024/01/06 00:07:09;;;;;;;;;;;282.10;2278.40;;;;;;4976995;28;19906;-78
2024/01/06 00:09:34;;;;;;;;;;;282.00;2278.40;;;;;;4960004;28;19917;-78
2024/01/06 00:12:01;;;;;;;;;;;282.00;2278.40;;;;;;4977335;28;20004;-78
2024/01/06 00:14:27;;;;;;;;;;;281.90;2278.40;;;;;;4977335;28;19906;-78
2024/01/06 00:16:53;;;;;;;;;;;281.80;2278.40;;;;;;4977539;28;19914;-77
2024/01/06 00:19:18;;;;;;;;;;;281.80;2278.40;;;;;;4977002;28;19906;-77
2024/01/06 00:21:44;;;;;;;;;;;281.80;2278.40;;;;;;4947477;29;20016;-80
2024/01/06 00:24:09;;;;;;;;;;;281.80;2278.40;;;;;;4956993;29;19932;-79
2024/01/06 00:26:35;;;;;;;;;;;281.80;2278.40;;;;;;4958354;29;20272;-78
2024/01/06 00:29:01;;;;;;;;;;;281.80;2278.40;;;;;;4940717;29;19961;-77
2024/01/06 00:31:27;;;;;;;;;;;281.80;2278.40;;;;;;4943575;29;20010;-77
2024/01/06 00:33:52;;;;;;;;;;;281.80;2278.40;;;;;;4965248;28;19912;-77
2024/01/06 00:36:18;;;;;;;;;;;281.80;2278.40;;;;;;4949946;28;20374;-79
2024/01/06 00:38:43;;;;;;;;;;;281.80;2278.40;;;;;;4940540;29;19907;-79
2024/01/06 00:41:09;;;;;;;;;;;281.80;2278.40;;;;;;4946362;29;19997;-78
2024/01/06 00:43:34;;;;;;;;;;;281.90;2278.40;;;;;;4957573;29;19914;-79
2024/01/06 00:46:00;;;;;;;;;;;281.90;2278.40;;;;;;4941067;29;19907;-77
2024/01/06 00:48:26;;;;;;;;;;;281.90;2278.40;;;;;;4957120;28;20077;-79
2024/01/06 00:50:51;;;;;;;;;;;282.00;2278.40;;;;;;4940214;29;19910;-78
2024/01/06 00:53:17;;;;;;;;;;;282.00;2278.40;;;;;;4940360;29;20341;-80
2024/01/06 00:55:42;;;;;;;;;;;282.00;2278.40;;;;;;4958605;28;19922;-79
2024/01/06 00:58:08;;;;;;;;;;;282.10;2278.40;;;;;;4957454;28;20356;-80
2024/01/06 01:00:34;;;;;;;;;;;282.10;2278.40;;;;;;4953097;28;20277;-77
2024/01/06 01:03:00;;;;;;;;;;;282.10;2278.40;;;;;;4940296;29;19907;-79
2024/01/06 01:05:25;;;;;;;;;;;282.20;2278.40;;;;;;4942137;29;19953;-78
2024/01/06 01:07:51;;;;;;;;;;;282.20;2278.40;;;;;;4941481;29;20328;-78
2024/01/06 01:10:16;;;;;;;;;;;282.30;2278.40;;;;;;4941485;29;19933;-78
2024/01/06 01:12:42;;;;;;;;;;;282.30;2278.40;;;;;;4940447;29;20371;-78
2024/01/06 01:15:08;;;;;;;;;;;282.30;2278.40;;;;;;4940269;29;19907;-79
2024/01/06 01:17:33;;;;;;;;;;;282.30;2278.40;;;;;;4939329;29;20364;-79
2024/01/06 01:19:59;;;;;;;;;;;282.40;2278.40;;;;;;4939871;29;19907;-79
2024/01/06 01:22:25;;;;;;;;;;;282.40;2278.40;;;;;;4940059;29;19973;-78
2024/01/06 01:24:50;;;;;;;;;;;282.50;2278.40;;;;;;4940156;29;20328;-78
2024/01/06 01:27:16;;;;;;;;;;;282.50;2278.40;;;;;;4940440;29;19907;-78
2024/01/06 01:29:41;;;;;;;;;;;282.50;2278.40;;;;;;4957421;28;19965;-79
2024/01/06 01:32:07;;;;;;;;;;;282.50;2278.40;;;;;;4957338;29;19972;-77
2024/01/06 01:34:33;;;;;;;;;;;282.50;2278.40;;;;;;4939918;29;19957;-80
2024/01/06 01:36:59;;;;;;;;;;;282.50;2278.40;;;;;;4951926;29;19958;-78
2024/01/06 01:39:25;;;;;;;;;;;282.50;2278.40;;;;;;4957336;29;19918;-80
2024/01/06 01:41:50;;;;;;;;;;;282.50;2278.40;;;;;;4946333;29;19911;-78
2024/01/06 01:44:16;;;;;;;;;;;282.50;2278.40;;;;;;4951312;29;19968;-78
2024/01/06 01:46:41;;;;;;;;;;;282.50;2278.40;;;;;;4957137;29;19906;-79
2024/01/06 01:49:07;;;;;;;;;;;282.50;2278.40;;;;;;4957095;29;19913;-81
2024/01/06 01:51:33;;;;;;;;;;;282.50;2278.40;;;;;;4944181;28;19910;-77
2024/01/06 01:53:59;;;;;;;;;;;282.50;2278.40;;;;;;4957014;29;19983;-78
2024/01/06 01:56:26;;;;;;;;;;;282.50;2278.40;;;;;;4939426;29;19925;-78
2024/01/06 01:58:51;;;;;;;;;;;282.50;2278.40;;;;;;4956685;29;20383;-79
2024/01/06 02:01:17;;;;;;;;;;;282.50;2278.40;;;;;;4956551;29;19907;-78
2024/01/06 02:03:45;;;;;;;;;;;282.50;2278.40;;;;;;4955865;29;20390;-77
2024/01/06 02:06:12;;;;;;;;;;;282.50;2278.40;;;;;;4939129;29;19913;-78
2024/01/06 02:08:37;;;;;;;;;;;282.50;2278.40;;;;;;4939662;29;20378;-78
2024/01/06 02:11:03;;;;;;;;;;;282.50;2278.40;;;;;;4956971;28;19907;-78
2024/01/06 02:13:33;;;;;;;;;;;307.20;2304.00;;;;;;4956526;28;20432;-78
2024/01/06 02:15:59;;;;;;;;;;;307.20;2304.00;;;;;;4938861;28;19914;-79
2024/01/06 02:18:25;;;;;;;;;;;307.20;2304.00;;;;;;4956525;29;19961;-79
2024/01/06 02:20:52;;;;;;;;;;;307.20;2304.00;;;;;;4938886;29;20356;-80
2024/01/06 02:23:18;;;;;;;;;;;307.20;2304.00;;;;;;4938674;29;19920;-79
2024/01/06 02:25:44;;;;;;;;;;;307.20;2304.00;;;;;;4939433;29;20338;-79
2024/01/06 02:28:09;;;;;;;;;;;307.20;2304.00;;;;;;4955268;29;19906;-79
2024/01/06 02:30:35;;;;;;;;;;;282.50;2278.40;;;;;;4956538;28;19915;-79
2024/01/06 02:33:00;;;;;;;;;;;307.20;2304.00;;;;;;4939087;29;19913;-80
2024/01/06 02:35:26;;;;;;;;;;;307.20;2304.00;;;;;;4955759;28;19910;-79
2024/01/06 02:37:51;;;;;;;;;;;307.20;2304.00;;;;;;4956078;29;19918;-79
2024/01/06 02:40:17;;;;;;;;;;;307.20;2304.00;;;;;;4956061;29;19907;-79
2024/01/06 02:42:43;;;;;;;;;;;307.20;2304.00;;;;;;4955480;29;19913;-79
2024/01/06 02:45:11;;;;;;;;;;;307.20;2304.00;;;;;;4938712;29;20324;-77
2024/01/06 02:47:37;;;;;;;;;;;307.20;2304.00;;;;;;4956107;29;19912;-77
2024/01/06 02:50:02;;;;;;;;;;;307.20;2304.00;;;;;;4955983;29;19906;-76
2024/01/06 02:52:28;;;;;;;;;;;307.20;2304.00;;;;;;4955288;28;20335;-76
2024/01/06 02:54:54;;;;;;;;;;;282.50;2278.40;;;;;;4955823;29;19997;-79
2024/01/06 02:57:19;;;;;;;;;;;282.50;2278.40;;;;;;4955756;29;19914;-78
2024/01/06 02:59:45;;;;;;;;;;;282.50;2278.40;;;;;;4937949;29;20396;-78
2024/01/06 03:02:11;;;;;;;;;;;307.20;2304.00;;;;;;4937792;29;19945;-78
2024/01/06 03:04:36;;;;;;;;;;;282.50;2278.40;;;;;;4955855;29;19913;-78
2024/01/06 03:07:02;;;;;;;;;;;307.20;2304.00;;;;;;4955648;29;19938;-79
2024/01/06 03:09:28;;;;;;;;;;;307.20;2304.00;;;;;;4938586;29;20348;-80
2024/01/06 03:11:53;;;;;;;;;;;307.20;2304.00;;;;;;4938609;29;19906;-78
2024/01/06 03:14:19;;;;;;;;;;;307.20;2304.00;;;;;;4955836;29;19907;-78
2024/01/06 03:16:44;;;;;;;;;;;282.50;2278.40;;;;;;4955825;29;20284;-78
2024/01/06 03:19:10;;;;;;;;;;;282.50;2278.40;;;;;;4955419;28;20375;-78
2024/01/06 03:21:36;;;;;;;;;;;282.50;2278.40;;;;;;4966131;28;19918;-78
2024/01/06 03:24:01;;;;;;;;;;;282.50;2278.40;;;;;;4957697;28;19910;-77
2024/01/06 03:26:27;;;;;;;;;;;282.50;2278.40;;;;;;4957559;28;19906;-78
2024/01/06 03:28:54;;;;;;;;;;;282.40;2278.40;;;;;;4957359;28;19906;-79
2024/01/06 03:31:22;;;;;;;;;;;282.40;2278.40;;;;;;4957575;28;19964;-77
2024/01/06 03:33:47;;;;;;;;;;;282.40;2278.40;;;;;;4974718;28;19906;-79
2024/01/06 03:36:15;;;;;;;;;;;282.40;2278.40;;;;;;4974692;28;20287;-78
2024/01/06 03:38:41;;;;;;;;;;;282.40;2278.40;;;;;;4957328;28;20109;-78
2024/01/06 03:41:07;;;;;;;;;;;282.40;2278.40;;;;;;4973583;28;20245;-79
2024/01/06 03:43:32;;;;;;;;;;;282.20;2278.40;;;;;;4957240;28;19961;-77
2024/01/06 03:46:00;;;;;;;;;;;282.50;2278.40;;;;;;4957685;28;19910;-77
2024/01/06 03:48:26;;;;;;;;;;;282.40;2278.40;;;;;;4975499;28;20557;-76
2024/01/06 03:50:51;;;;;;;;;;;282.30;2278.40;;;;;;4963733;28;19933;-77
2024/01/06 03:53:17;;;;;;;;;;;282.50;2278.40;;;;;;4964013;28;19918;-78
2024/01/06 03:55:43;;;;;;;;;;;282.50;2278.40;;;;;;4974765;28;19921;-78
2024/01/06 03:58:08;;;;;;;;;;;282.50;2278.40;;;;;;4957229;28;19921;-78
2024/01/06 04:00:34;;;;;;;;;;;282.50;2278.40;;;;;;4973208;28;19914;-78
2024/01/06 04:03:00;;;;;;;;;;;282.50;2278.40;;;;;;4956779;28;20410;-79
2024/01/06 04:05:25;;;;;;;;;;;282.50;2278.40;;;;;;4974040;28;19942;-78
2024/01/06 04:07:51;;;;;;;;;;;282.50;2278.40;;;;;;4957153;28;19906;-79
2024/01/06 04:10:16;;;;;;;;;;;282.50;2278.40;;;;;;4957269;28;20352;-79
2024/01/06 04:12:42;;;;;;;;;;;282.50;2278.40;;;;;;4956488;28;19913;-78
2024/01/06 04:15:08;;;;;;;;;;;282.50;2278.40;;;;;;4960224;28;19913;-78
2024/01/06 04:17:33;;;;;;;;;;;282.50;2278.40;;;;;;4977971;28;19964;-79
2024/01/06 04:19:59;;;;;;;;;;;282.50;2278.40;;;;;;4960722;28;19906;-78
2024/01/06 04:22:24;;;;;;;;;;;282.50;2278.40;;;;;;4942310;28;20435;-78
2024/01/06 04:24:50;;;;;;;;;;;282.50;2278.40;;;;;;4958479;29;19910;-79
2024/01/06 04:27:16;;;;;;;;;;;307.20;2304.00;;;;;;4941379;28;20271;-78
2024/01/06 04:29:41;;;;;;;;;;;307.30;2304.00;;;;;;4941532;29;19906;-77
2024/01/06 04:32:07;;;;;;;;;;;307.20;2304.00;;;;;;4941521;29;19952;-79
2024/01/06 04:34:33;;;;;;;;;;;307.30;2304.00;;;;;;4941456;29;19945;-80
2024/01/06 04:36:58;;;;;;;;;;;307.30;2304.00;;;;;;4957919;28;19914;-77
2024/01/06 04:39:24;;;;;;;;;;;307.30;2304.00;;;;;;4941289;29;19946;-78
2024/01/06 04:41:50;;;;;;;;;;;307.30;2304.00;;;;;;4941175;29;20426;-78
2024/01/06 04:44:15;;;;;;;;;;;307.30;2304.00;;;;;;4958485;29;19911;-77
2024/01/06 04:46:41;;;;;;;;;;;307.30;2304.00;;;;;;4958420;29;19906;-77
2024/01/06 04:49:07;;;;;;;;;;;307.30;2304.00;;;;;;4940830;29;19907;-78
2024/01/06 04:51:32;;;;;;;;;;;307.20;2304.00;;;;;;4940499;29;20287;-78
2024/01/06 04:53:58;;;;;;;;;;;307.20;2304.00;;;;;;4958063;29;19914;-77
2024/01/06 04:56:23;;;;;;;;;;;307.20;2304.00;;;;;;4957845;29;19946;-78
2024/01/06 04:58:49;;;;;;;;;;;307.20;2304.00;;;;;;4940801;29;19949;-77
2024/01/06 05:01:15;;;;;;;;;;;307.20;2304.00;;;;;;4957860;29;20014;-78
2024/01/06 05:03:41;;;;;;;;;;;282.50;2278.40;;;;;;4958276;28;19906;-79
2024/01/06 05:06:06;;;;;;;;;;;282.50;2278.40;;;;;;4957800;28;20412;-79
2024/01/06 05:08:32;;;;;;;;;;;282.50;2278.40;;;;;;4940778;29;19910;-80
2024/01/06 05:10:57;;;;;;;;;;;282.50;2278.40;;;;;;4940264;29;19907;-79
2024/01/06 05:13:23;;;;;;;;;;;282.50;2278.40;;;;;;4956159;29;19911;-78
2024/01/06 05:15:49;;;;;;;;;;;282.50;2278.40;;;;;;4939802;29;20116;-78
2024/01/06 05:18:14;;;;;;;;;;;282.30;2278.40;;;;;;4957515;29;20076;-77
2024/01/06 05:20:43;;;;;;;;;;;282.40;2278.40;;;;;;4944076;28;19910;-78
2024/01/06 05:23:09;;;;;;;;;;;282.40;2278.40;;;;;;4959357;28;19910;-79
2024/01/06 05:25:34;;;;;;;;;;;282.40;2278.40;;;;;;4958490;28;20122;-78
2024/01/06 05:28:00;;;;;;;;;;;282.40;2278.40;;;;;;4959400;28;20256;-79
2024/01/06 05:30:25;;;;;;;;;;;282.50;2278.40;;;;;;4976475;28;19938;-79
2024/01/06 05:32:51;;;;;;;;;;;282.50;2278.40;;;;;;4959488;28;20279;-79
2024/01/06 05:35:16;;;;;;;;;;;282.50;2278.40;;;;;;4959199;28;19933;-78
2024/01/06 05:37:42;;;;;;;;;;;282.50;2278.40;;;;;;4976688;28;20355;-78
2024/01/06 05:40:08;;;;;;;;;;;282.50;2278.40;;;;;;4958975;28;19967;-80
2024/01/06 05:42:34;;;;;;;;;;;282.50;2278.40;;;;;;4959304;28;19913;-79
2024/01/06 05:44:59;;;;;;;;;;;282.50;2278.40;;;;;;4958989;28;19906;-80
2024/01/06 05:47:25;;;;;;;;;;;282.50;2278.40;;;;;;4958960;28;20303;-79
2024/01/06 05:49:50;;;;;;;;;;;282.50;2278.40;;;;;;4958887;28;19906;-79
2024/01/06 05:52:16;;;;;;;;;;;307.20;2304.00;;;;;;4958698;28;19914;-79
2024/01/06 05:54:42;;;;;;;;;;;282.50;2278.40;;;;;;4948330;28;19968;-78
2024/01/06 05:57:08;;;;;;;;;;;282.50;2278.40;;;;;;4976039;28;19957;-79
2024/01/06 05:59:33;;;;;;;;;;;282.50;2278.40;;;;;;4958492;28;20303;-79
2024/01/06 06:02:00;;;;;;;;;;;282.50;2278.40;;;;;;4955547;29;19906;-79
2024/01/06 06:04:25;;;;;;;;;;;282.50;2278.40;;;;;;4970214;28;19937;-81
2024/01/06 06:06:51;;;;;;;;;;;282.50;2278.40;;;;;;4975533;28;20363;-77
2024/01/06 06:09:16;;;;;;;;;;;282.50;2278.40;;;;;;4955653;28;19993;-76
2024/01/06 06:11:42;;;;;;;;;;;282.50;2278.40;;;;;;4975287;28;19912;-76
2024/01/06 06:14:08;;;;;;;;;;;282.50;2278.40;;;;;;4975550;28;19939;-77
2024/01/06 06:16:34;;;;;;;;;;;282.50;2278.40;;;;;;4957847;28;20256;-79
2024/01/06 06:19:00;;;;;;;;;;;282.50;2278.40;;;;;;4954456;28;19905;-79
2024/01/06 06:21:25;;;;;;;;;;;282.50;2278.40;;;;;;4947815;29;19922;-81
2024/01/06 06:23:51;;;;;;;;;;;282.50;2278.40;;;;;;4955481;29;19910;-82
2024/01/06 06:26:17;;;;;;;;;;;282.40;2278.40;;;;;;4939744;29;19957;-83
2024/01/06 06:28:42;;;;;;;;;;;282.40;2278.40;;;;;;4938818;29;20280;-82
2024/01/06 06:31:08;;;;;;;;;;;282.40;2278.40;;;;;;4937024;29;20253;-81
2024/01/06 06:33:34;;;;;;;;;;;282.50;2278.40;;;;;;4938588;29;20352;-84
2024/01/06 06:35:59;;;;;;;;;;;282.40;2278.40;;;;;;4955954;28;20344;-83
2024/01/06 06:38:25;;;;;;;;;;;282.30;2278.40;;;;;;4939177;29;20291;-84
2024/01/06 06:40:51;;;;;;;;;;;282.20;2278.40;;;;;;4940830;29;19917;-85
2024/01/06 06:43:16;;;;;;;;;;;282.30;2278.40;;;;;;4938893;29;19910;-83
2024/01/06 06:45:42;;;;;;;;;;;282.30;2278.40;;;;;;4938000;29;19957;-81
2024/01/06 06:48:07;;;;;;;;;;;282.30;2278.40;;;;;;4939082;29;19911;-79
2024/01/06 06:50:33;;;;;;;;;;;282.20;2278.40;;;;;;4938416;29;20284;-80
2024/01/06 06:52:59;;;;;;;;;;;282.20;2278.40;;;;;;4955976;29;20001;-79
2024/01/06 06:55:25;;;;;;;;;;;282.30;2278.40;;;;;;4936626;29;20357;-78
2024/01/06 06:57:50;;;;;;;;;;;282.20;2278.40;;;;;;4938622;29;19913;-80
2024/01/06 07:00:17;;;;;;;;;;;282.20;2278.40;;;;;;4937462;29;19973;-77
2024/01/06 07:02:42;;;;;;;;;;;282.20;2278.40;;;;;;4954282;28;19957;-76
2024/01/06 07:05:08;;;;;;;;;;;282.30;2278.40;;;;;;4944588;29;19950;-76
2024/01/06 07:07:33;;;;;;;;;;;282.30;2278.40;;;;;;4958458;29;19917;-78
2024/01/06 07:10:04;;;;;;;;;;;282.40;2278.40;;;;;;4965333;29;19910;-77
2024/01/06 07:12:30;;;;;;;;;;;282.50;2278.40;;;;;;4964205;29;20001;-77
2024/01/06 07:14:56;;;;;;;;;;;282.50;2278.40;;;;;;4954641;29;19945;-79
2024/01/06 07:17:21;;;;;;;;;;;282.50;2278.40;;;;;;4938005;29;19914;-79
2024/01/06 07:19:48;;;;;;;;;;;282.50;2278.40;;;;;;4951704;28;20364;-79
2024/01/06 07:22:16;;;;;;;;;;;307.20;2304.00;;;;;;4971109;28;19918;-79
2024/01/06 07:24:42;;;;;;;;;;;307.20;2304.00;;;;;;4957710;28;19917;-80
2024/01/06 07:27:07;;;;;;;;;;;307.30;2304.00;;;;;;4954373;28;20280;-80
2024/01/06 07:29:33;;;;;;;;;;;307.20;2304.00;;;;;;4957088;28;19913;-80
2024/01/06 07:31:58;;;;;;;;;;;307.30;2304.00;;;;;;4957646;28;19906;-81
2024/01/06 07:34:25;;;;;;;;;;;307.30;2304.00;;;;;;4956312;28;19912;-80
2024/01/06 07:36:50;;;;;;;;;;;307.30;2304.00;;;;;;4970220;28;19914;-79
2024/01/06 07:39:16;;;;;;;;;;;307.30;2304.00;;;;;;4956772;28;19913;-79
2024/01/06 07:41:42;;;;;;;;;;;307.50;2304.00;;;;;;4966669;28;19913;-78
2024/01/06 07:44:07;;;;;;;;;;;307.60;2304.00;;;;;;4956282;28;19913;-78
2024/01/06 07:46:35;;;;;;;;;;;307.60;2304.00;;;;;;4957077;28;19912;-80
2024/01/06 07:49:00;;;;;;;;;;;307.80;2304.00;;;;;;4958559;28;20012;-79
2024/01/06 07:51:26;;;;;;;;;;;307.80;2304.00;;;;;;4962924;28;20041;-79
2024/01/06 07:53:51;;;;;;;;;;;307.80;2304.00;;;;;;4960083;28;19965;-78
2024/01/06 07:56:18;;;;;;;;;;;307.80;2304.00;;;;;;4977650;28;19957;-78
2024/01/06 07:58:43;;;;;;;;;;;307.80;2304.00;;;;;;4977369;28;19913;-77
2024/01/06 08:01:09;;;;;;;;;;;307.80;2304.00;;;;;;4959096;28;19907;-77
2024/01/06 08:03:34;;;;;;;;;;;307.80;2304.00;;;;;;4969537;28;19906;-78
2024/01/06 08:06:00;;;;;;;;;;;307.70;2304.00;;;;;;4960651;28;19906;-78
2024/01/06 08:08:26;;;;;;;;;;;307.60;2304.00;;;;;;4975129;28;20058;-79
2024/01/06 08:10:51;;;;;;;;;;;307.60;2304.00;;;;;;4959195;28;20284;-78
2024/01/06 08:13:17;;;;;;;;;;;307.60;2304.00;;;;;;4959841;28;19905;-78
2024/01/06 08:15:43;;;;;;;;;;;307.50;2304.00;;;;;;4965911;28;19910;-79
2024/01/06 08:18:08;;;;;;;;;;;307.50;2304.00;;;;;;4958349;28;20377;-78
2024/01/06 08:20:34;;;;;;;;;;;307.60;2304.00;;;;;;4959671;28;20268;-79
2024/01/06 08:22:59;;;;;;;;;;;307.60;2304.00;;;;;;4964995;28;20002;-77
2024/01/06 08:25:25;;;;;;;;;;;307.60;2304.00;;;;;;4976597;28;20024;-77
2024/01/06 08:27:50;;;;;;;;;;;307.60;2304.00;;;;;;4977025;28;20297;-78
2024/01/06 08:30:16;;;;;;;;;;;307.60;2304.00;;;;;;4959278;28;19934;-78
2024/01/06 08:32:41;;;;;;;;;;;307.70;2304.00;;;;;;4960151;28;20366;-77
2024/01/06 08:35:08;;;;;;;;;;;307.70;2304.00;;;;;;4959281;28;19909;-76
2024/01/06 08:37:33;;;;;;;;;;;307.70;2304.00;;;;;;4976828;28;19914;-77
2024/01/06 08:39:59;;;;;;;;;;;307.70;2304.00;;;;;;4958970;28;19992;-76
2024/01/06 08:42:25;;;;;;;;;;;307.80;2304.00;;;;;;4976806;28;19933;-76
2024/01/06 08:44:51;;;;;;;;;;;307.80;2304.00;;;;;;4975908;28;19909;-76
2024/01/06 08:47:17;;;;;;;;;;;307.90;2304.00;;;;;;4976976;28;19913;-77
2024/01/06 08:49:42;;;;;;;;;;;308.00;2304.00;;;;;;4957135;28;19910;-77
2024/01/06 08:52:08;;;;;;;;;;;308.10;2304.00;;;;;;4958700;28;20418;-76
2024/01/06 08:54:34;;;;;;;;;;;308.10;2304.00;;;;;;4976306;28;19917;-77
2024/01/06 08:57:00;;;;;;;;;;;308.10;2304.00;;;;;;4973544;28;19922;-75
2024/01/06 08:59:25;;;;;;;;;;;308.10;2304.00;;;;;;4976080;28;20372;-78
2024/01/06 09:01:52;;;;;;;;;;;308.10;2304.00;;;;;;4970386;28;19910;-78
2024/01/06 09:04:18;;;;;;;;;;;308.10;2304.00;;;;;;4972658;28;19913;-77
2024/01/06 09:06:45;;;;;;;;;;;308.10;2304.00;;;;;;4946192;29;19907;-77
2024/01/06 09:09:10;;;;;;;;;;;308.10;2304.00;;;;;;4958654;28;20023;-78
2024/01/06 09:11:36;;;;;;;;;;;308.10;2304.00;;;;;;4976575;28;19910;-78
2024/01/06 09:14:02;;;;;;;;;;;308.00;2304.00;;;;;;4958045;28;19906;-77
2024/01/06 09:16:27;;;;;;;;;;;307.90;2304.00;;;;;;4976199;28;19918;-77
2024/01/06 09:18:53;;;;;;;;;;;307.90;2304.00;;;;;;4964011;28;20376;-77
2024/01/06 09:21:19;;;;;;;;;;;307.90;2304.00;;;;;;4949319;29;19968;-77
2024/01/06 09:23:44;;;;;;;;;;;307.90;2304.00;;;;;;4939640;29;19911;-79
2024/01/06 09:26:10;;;;;;;;;;;307.80;2304.00;;;;;;4951670;29;20427;-80
2024/01/06 09:28:36;;;;;;;;;;;307.80;2304.00;;;;;;4938867;29;19965;-80
2024/01/06 09:31:01;;;;;;;;;;;307.90;2304.00;;;;;;4940292;29;19907;-81
2024/01/06 09:33:27;;;;;;;;;;;307.90;2304.00;;;;;;4956695;29;19907;-79
2024/01/06 09:35:52;;;;;;;;;;;307.90;2304.00;;;;;;4940324;29;20050;-83
2024/01/06 09:38:18;;;;;;;;;;;308.00;2304.00;;;;;;4955955;29;19973;-79
2024/01/06 09:40:48;;;;;;;;;;;308.10;2304.00;;;;;;4939542;29;19907;-79
2024/01/06 09:43:13;;;;;;;;;;;308.10;2304.00;;;;;;4936587;29;19918;-80
2024/01/06 09:45:39;;;;;;;;;;;308.10;2304.00;;;;;;4956194;29;19906;-79
2024/01/06 09:48:10;;;;;;;;;;;308.10;2304.00;;;;;;4954401;28;19910;-78
2024/01/06 09:50:35;;;;;;;;;;;308.10;2304.00;;;;;;4956249;29;19969;-78
2024/01/06 09:53:05;;;;;;;;;;;308.10;2304.00;;;;;;4956519;29;19914;-79
2024/01/06 09:55:31;;;;;;;;;;;308.10;2304.00;;;;;;4955873;28;19989;-75
2024/01/06 09:57:57;;;;;;;;;;;308.10;2304.00;;;;;;4939101;29;19985;-76
2024/01/06 10:00:22;;;;;;;;;;;308.10;2304.00;;;;;;4956661;29;19906;-76
2024/01/06 10:02:48;;;;;;;;;;;308.10;2304.00;;;;;;4938821;29;19906;-76
2024/01/06 10:05:15;;;;;;;;;;;308.10;2304.00;;;;;;4939179;29;19913;-75
2024/01/06 10:07:44;;;;;;;;;;;308.10;2304.00;;;;;;4956088;29;20364;-84
2024/01/06 10:10:13;;;;;;;;;;;308.10;2304.00;;;;;;4939046;29;20008;-80
2024/01/06 10:12:39;;;;;;;;;;;308.10;2304.00;;;;;;4949037;28;19910;-85
2024/01/06 10:15:06;;;;;;;;;;;308.10;2304.00;;;;;;4931811;29;20304;-82
2024/01/06 10:17:32;;;;;;;;;;;308.10;2304.00;;;;;;4939465;29;19914;-76
2024/01/06 10:19:58;;;;;;;;;;;308.10;2304.00;;;;;;4939737;29;19911;-77
2024/01/06 10:22:23;;;;;;;;;;;308.10;2304.00;;;;;;4973377;28;19937;-77
2024/01/06 10:24:49;;;;;;;;;;;308.10;2304.00;;;;;;4974569;28;19910;-80
2024/01/06 10:27:16;;;;;;;;;;;308.10;2304.00;;;;;;4958685;28;19973;-77
2024/01/06 10:29:44;;;;;;;;;;;308.00;2304.00;;;;;;4956592;28;19913;-75
2024/01/06 10:32:10;;;;;;;;;;;308.00;2304.00;;;;;;4957584;28;20287;-77
2024/01/06 10:34:36;;;;;;;;;;;308.00;2304.00;;;;;;4957475;28;19910;-79
2024/01/06 10:37:02;;;;;;;;;;;308.10;2304.00;;;;;;4957161;28;19965;-78
2024/01/06 10:39:29;;;;;;;;;;;308.00;2304.00;;;;;;4956709;28;20367;-79
2024/01/06 10:41:55;;;;;;;;;;;308.10;2304.00;;;;;;4956857;28;19933;-78
2024/01/06 10:44:21;;;;;;;;;;;308.10;2304.00;;;;;;4956998;28;20702;-75
2024/01/06 10:46:48;;;;;;;;;;;308.10;2304.00;;;;;;4954818;28;20257;-76
2024/01/06 10:49:14;;;;;;;;;;;308.10;2304.00;;;;;;4956121;28;19913;-75
2024/01/06 10:51:40;;;;;;;;;;;333.20;2329.60;;;;;;4956048;28;20292;-77
2024/01/06 10:54:06;;;;;;;;;;;333.20;2329.60;;;;;;4956271;28;20008;-78
2024/01/06 10:56:36;;;;;;;;;;;308.10;2304.00;;;;;;4955790;28;19981;-78
2024/01/06 10:59:03;;;;;;;;;;;308.10;2304.00;;;;;;4956331;28;19906;-76
2024/01/06 11:01:29;;;;;;;;;;;308.10;2304.00;;;;;;4960177;28;19912;-77
2024/01/06 11:03:55;;;;;;;;;;;307.90;2304.00;;;;;;4973586;28;19996;-81
2024/01/06 11:06:21;;;;;;;;;;;332.80;2329.60;;;;;;4956207;28;19913;-78
2024/01/06 11:08:52;;;;;;;;;;;332.80;2329.60;;;;;;4953966;28;20081;-78
2024/01/06 11:11:19;;;;;;;;;;;332.80;2329.60;;;;;;4956275;28;19906;-77
2024/01/06 11:13:46;;;;;;;;;;;332.80;2329.60;;;;;;4970392;28;19910;-79
2024/01/06 11:16:32;;;;;;;;;;;332.80;2329.60;;;;;;4961746;28;20012;-77
2024/01/06 11:18:57;;;;;;;;;;;332.80;2329.60;;;;;;4972630;28;20233;-77
2024/01/06 11:21:26;;;;;;;;;;;332.80;2329.60;;;;;;4973842;28;19926;-78
2024/01/06 11:24:11;;;;;;;;;;;332.80;2329.60;;;;;;4962980;28;19906;-78
2024/01/06 11:26:42;;;;;;;;;;;332.90;2329.60;;;;;;4970818;28;19948;-78
2024/01/06 11:29:07;;;;;;;;;;;332.80;2329.60;;;;;;4955579;28;19912;-77
2024/01/06 11:31:33;;;;;;;;;;;332.80;2329.60;;;;;;4976638;28;20004;-76
2024/01/06 11:34:12;;;;;;;;;;;332.80;2329.60;;;;;;4955937;28;19906;-76
2024/01/06 11:36:39;;;;;;;;;;;332.90;2329.60;;;;;;4956796;28;19921;-76
2024/01/06 11:39:05;;;;;;;;;;;332.90;2329.60;;;;;;4977306;28;20008;-75
2024/01/06 11:41:50;;;;;;;;;;;332.90;2329.60;;;;;;4973893;28;19906;-76
2024/01/06 11:44:21;;;;;;;;;;;332.90;2329.60;;;;;;4963575;28;19906;-76
2024/01/06 11:46:47;;;;;;;;;;;332.80;2329.60;;;;;;4974386;28;19910;-76
2024/01/06 11:49:15;;;;;;;;;;;332.80;2329.60;;;;;;4956803;28;19968;-76
2024/01/06 11:51:40;;;;;;;;;;;332.80;2329.60;;;;;;4948326;29;19961;-76
2024/01/06 11:54:06;;;;;;;;;;;308.10;2304.00;;;;;;4973063;28;19910;-76
2024/01/06 11:56:32;;;;;;;;;;;308.10;2304.00;;;;;;4956519;28;20371;-77
2024/01/06 11:58:57;;;;;;;;;;;308.00;2304.00;;;;;;4955659;28;19941;-79
2024/01/06 12:01:23;;;;;;;;;;;308.00;2304.00;;;;;;4965323;28;20418;-80
2024/01/06 12:03:53;;;;;;;;;;;308.00;2304.00;;;;;;4973611;28;19914;-78
2024/01/06 12:06:21;;;;;;;;;;;308.00;2304.00;;;;;;4962166;28;19910;-77
2024/01/06 12:08:47;;;;;;;;;;;308.00;2304.00;;;;;;4970071;28;19910;-81
2024/01/06 12:11:12;;;;;;;;;;;307.90;2304.00;;;;;;4956516;28;19906;-76
2024/01/06 12:13:38;;;;;;;;;;;307.90;2304.00;;;;;;4956874;28;20352;-76
2024/01/06 12:16:04;;;;;;;;;;;307.80;2304.00;;;;;;4971707;28;19997;-78
2024/01/06 12:18:30;;;;;;;;;;;307.90;2304.00;;;;;;4972115;28;20000;-79
2024/01/06 12:20:55;;;;;;;;;;;307.90;2304.00;;;;;;4972837;28;20344;-79
2024/01/06 12:23:27;;;;;;;;;;;307.90;2304.00;;;;;;4972405;28;19913;-79
2024/01/06 12:25:56;;;;;;;;;;;307.90;2304.00;;;;;;4972690;28;19914;-81
2024/01/06 12:28:21;;;;;;;;;;;308.00;2304.00;;;;;;4956742;28;19948;-81
2024/01/06 12:30:47;;;;;;;;;;;308.00;2304.00;;;;;;4974204;28;19934;-79
2024/01/06 12:33:14;;;;;;;;;;;308.10;2304.00;;;;;;4973267;28;19914;-79
2024/01/06 12:35:41;;;;;;;;;;;308.10;2304.00;;;;;;4975908;28;19906;-79
2024/01/06 12:38:08;;;;;;;;;;;332.80;2329.60;;;;;;4977127;28;19913;-79
2024/01/06 12:40:35;;;;;;;;;;;332.90;2329.60;;;;;;4955904;28;20394;-77
2024/01/06 12:43:00;;;;;;;;;;;332.90;2329.60;;;;;;4976983;28;19945;-78
2024/01/06 12:45:27;;;;;;;;;;;332.90;2329.60;;;;;;4958736;28;20355;-79
2024/01/06 12:47:54;;;;;;;;;;;332.90;2329.60;;;;;;4959008;28;20284;-80
2024/01/06 12:50:19;;;;;;;;;;;332.90;2329.60;;;;;;4959257;28;20327;-80
2024/01/06 12:52:45;;;;;;;;;;;332.90;2329.60;;;;;;4959151;28;19909;-80
2024/01/06 12:55:11;;;;;;;;;;;333.00;2329.60;;;;;;4959344;28;19992;-79
2024/01/06 12:57:37;;;;;;;;;;;333.40;2329.60;;;;;;4959033;28;20005;-80
2024/01/06 13:00:03;;;;;;;;;;;332.90;2329.60;;;;;;4954525;28;19949;-78
2024/01/06 13:02:29;;;;;;;;;;;332.80;2329.60;;;;;;4958569;28;19956;-79
2024/01/06 13:04:55;;;;;;;;;;;332.80;2329.60;;;;;;4959127;28;19952;-79
2024/01/06 13:07:22;;;;;;;;;;;332.80;2329.60;;;;;;4958514;28;19906;-80
2024/01/06 13:09:50;;;;;;;;;;;332.80;2329.60;;;;;;4974420;28;19910;-79
2024/01/06 13:12:18;;;;;;;;;;;332.80;2329.60;;;;;;4959014;28;19977;-78
2024/01/06 13:14:47;;;;;;;;;;;332.80;2329.60;;;;;;4958467;28;20529;-78
2024/01/06 13:17:14;;;;;;;;;;;332.80;2329.60;;;;;;4958156;28;19929;-78
2024/01/06 13:19:39;;;;;;;;;;;332.80;2329.60;;;;;;4959047;28;20269;-76
2024/01/06 13:22:05;;;;;;;;;;;308.10;2304.00;;;;;;4974981;28;19929;-79
2024/01/06 13:24:31;;;;;;;;;;;308.10;2304.00;;;;;;4969020;28;19910;-78
2024/01/06 13:26:58;;;;;;;;;;;308.10;2304.00;;;;;;4951171;28;19914;-79
2024/01/06 13:29:24;;;;;;;;;;;308.00;2304.00;;;;;;4962380;28;19917;-78
2024/01/06 13:31:50;;;;;;;;;;;308.00;2304.00;;;;;;4982614;28;19906;-76
2024/01/06 13:34:15;;;;;;;;;;;308.00;2304.00;;;;;;4987601;28;19910;-77
2024/01/06 13:36:41;;;;;;;;;;;308.00;2304.00;;;;;;4979634;28;20033;-78